createdAt,value
2018-06-17T00:01:08.722Z,4.87
2018-06-17T00:03:37.980Z,4.80
2018-06-17T00:06:07.254Z,5.13
2018-06-17T00:08:36.536Z,4.30
2018-06-17T00:11:05.925Z,5.07
2018-06-17T00:13:35.202Z,4.47
2018-06-17T00:16:04.504Z,5.63
2018-06-17T00:18:33.814Z,4.73
2018-06-17T00:21:03.088Z,4.80
2018-06-17T00:23:32.342Z,5.87
2018-06-17T00:26:01.608Z,5.70
2018-06-17T00:28:30.871Z,5.20
2018-06-17T00:31:00.187Z,5.50
2018-06-17T00:33:29.455Z,5.77
2018-06-17T00:35:58.803Z,6.67
2018-06-17T00:38:28.085Z,7.17
2018-06-17T00:40:57.407Z,6.70
2018-06-17T00:43:26.665Z,6.43
2018-06-17T00:45:56.349Z,8.27
2018-06-17T00:48:25.567Z,6.27
2018-06-17T00:50:54.524Z,6.10
2018-06-17T00:53:23.635Z,8.27
2018-06-17T00:55:52.899Z,5.43
2018-06-17T00:58:22.180Z,5.90
2018-06-17T01:00:51.549Z,5.90
2018-06-17T01:03:20.871Z,5.90
2018-06-17T01:05:50.112Z,8.10
2018-06-17T01:08:19.328Z,5.63
2018-06-17T01:10:48.648Z,6.20
2018-06-17T01:13:17.946Z,6.73
2018-06-17T01:15:47.294Z,6.20
2018-06-17T01:18:16.557Z,7.17
2018-06-17T01:20:46.148Z,6.60
2018-06-17T01:23:15.397Z,5.60
2018-06-17T01:25:44.603Z,5.73
2018-06-17T01:28:13.911Z,9.00
2018-06-17T01:30:43.234Z,8.83
2018-06-17T01:33:13.279Z,7.55
2018-06-17T01:35:42.562Z,10.57
2018-06-17T01:38:11.546Z,10.17
2018-06-17T01:40:40.892Z,7.67
2018-06-17T01:43:10.142Z,11.33
2018-06-17T01:45:39.410Z,8.17
2018-06-17T01:48:08.962Z,10.93
2018-06-17T01:50:38.556Z,9.37
2018-06-17T01:53:08.096Z,7.77
2018-06-17T01:55:37.387Z,11.97
2018-06-17T01:58:06.647Z,11.80
2018-06-17T02:00:35.906Z,8.13
2018-06-17T02:03:10.532Z,8.90
2018-06-17T02:05:45.103Z,9.13
2018-06-17T02:08:19.623Z,11.53
2018-06-17T02:10:54.064Z,9.03
2018-06-17T02:13:23.398Z,11.93
2018-06-17T02:15:52.665Z,9.83
2018-06-17T02:18:21.978Z,8.07
2018-06-17T02:20:51.257Z,10.00
2018-06-17T02:23:20.548Z,7.60
2018-06-17T02:25:49.785Z,10.00
2018-06-17T02:28:19.054Z,11.90
2018-06-17T02:30:48.363Z,11.27
2018-06-17T02:33:17.600Z,7.60
2018-06-17T02:35:46.923Z,11.20
2018-06-17T02:38:16.176Z,11.07
2018-06-17T02:40:45.442Z,8.90
2018-06-17T02:43:14.753Z,9.97
2018-06-17T02:45:49.472Z,11.20
2018-06-17T02:48:24.060Z,8.70
2018-06-17T02:50:58.780Z,7.93
2018-06-17T02:53:33.386Z,11.10
2018-06-17T02:56:02.669Z,9.23
2018-06-17T02:58:31.925Z,9.43
2018-06-17T03:01:01.316Z,7.27
2018-06-17T03:03:30.560Z,9.10
2018-06-17T03:05:59.795Z,8.83
2018-06-17T03:08:29.063Z,11.73
2018-06-17T03:10:58.342Z,11.10
2018-06-17T03:13:27.689Z,10.13
2018-06-17T03:15:57.001Z,14.57
2018-06-17T03:18:26.322Z,15.87
2018-06-17T03:20:55.668Z,11.80
2018-06-17T03:23:24.972Z,13.87
2018-06-17T03:25:59.708Z,15.43
2018-06-17T03:28:34.300Z,12.13
2018-06-17T03:31:09.353Z,11.57
2018-06-17T03:33:43.986Z,14.53
2018-06-17T03:36:13.448Z,11.30
2018-06-17T03:38:43.030Z,12.70
2018-06-17T03:41:12.952Z,17.43
2018-06-17T03:43:42.395Z,12.77
2018-06-17T03:46:12.140Z,13.53
2018-06-17T03:48:41.629Z,12.10
2018-06-17T03:51:11.197Z,18.50
2018-06-17T03:53:41.239Z,11.47
2018-06-17T03:56:12.768Z,19.57
2018-06-17T03:58:42.192Z,17.97
2018-06-17T04:01:11.746Z,14.67
2018-06-17T04:03:41.154Z,13.00
2018-06-17T04:06:10.488Z,15.07
2018-06-17T04:08:39.863Z,11.50
2018-06-17T04:11:09.856Z,12.53
2018-06-17T04:13:38.995Z,13.47
2018-06-17T04:16:07.973Z,10.00
2018-06-17T04:18:37.223Z,13.33
2018-06-17T04:21:06.645Z,10.57
2018-06-17T04:23:36.029Z,12.57
2018-06-17T04:26:05.774Z,10.90
2018-06-17T04:28:35.367Z,14.97
2018-06-17T04:31:05.734Z,11.53
2018-06-17T04:33:34.713Z,13.53
2018-06-17T04:36:03.898Z,11.90
2018-06-17T04:38:33.413Z,9.67
2018-06-17T04:41:02.810Z,9.80
2018-06-17T04:43:32.157Z,8.13
2018-06-17T04:46:01.562Z,8.23
2018-06-17T04:48:30.932Z,8.63
2018-06-17T04:51:00.366Z,9.93
2018-06-17T04:53:29.838Z,12.00
2018-06-17T04:55:59.307Z,8.50
2018-06-17T04:58:28.772Z,10.07
2018-06-17T05:00:58.153Z,11.13
2018-06-17T05:03:27.572Z,7.93
2018-06-17T05:05:56.999Z,8.97
2018-06-17T05:08:26.284Z,9.47
2018-06-17T05:10:55.529Z,9.10
2018-06-17T05:13:24.502Z,9.47
2018-06-17T05:15:53.813Z,9.53
2018-06-17T05:18:23.215Z,9.10
2018-06-17T05:20:52.504Z,9.90
2018-06-17T05:23:22.053Z,10.00
2018-06-17T05:25:51.434Z,7.20
2018-06-17T05:28:20.640Z,8.23
2018-06-17T05:30:49.923Z,7.97
2018-06-17T05:33:19.209Z,11.60
2018-06-17T05:35:48.562Z,10.70
2018-06-17T05:38:17.958Z,9.17
2018-06-17T05:40:47.499Z,7.80
2018-06-17T05:43:16.908Z,9.43
2018-06-17T05:45:46.375Z,10.43
2018-06-17T05:48:15.840Z,10.07
2018-06-17T05:50:45.191Z,9.97
2018-06-17T05:53:14.598Z,7.70
2018-06-17T05:55:43.996Z,9.90
2018-06-17T05:58:13.325Z,12.47
2018-06-17T06:00:42.616Z,9.40
2018-06-17T06:03:12.021Z,9.07
2018-06-17T06:05:41.309Z,10.27
2018-06-17T06:08:10.637Z,9.37
2018-06-17T06:10:40.104Z,11.63
2018-06-17T06:13:09.644Z,9.40
2018-06-17T06:15:39.078Z,10.60
2018-06-17T06:18:09.585Z,9.60
2018-06-17T06:20:39.049Z,11.53
2018-06-17T06:23:08.463Z,14.60
2018-06-17T06:25:38.080Z,16.43
2018-06-17T06:28:07.591Z,11.90
2018-06-17T06:30:36.975Z,13.17
2018-06-17T06:33:06.287Z,9.93
2018-06-17T06:35:35.536Z,12.43
2018-06-17T06:38:04.812Z,11.90
2018-06-17T06:40:34.155Z,9.30
2018-06-17T06:43:03.472Z,12.30
2018-06-17T06:45:32.791Z,12.10
2018-06-17T06:48:02.085Z,10.47
2018-06-17T06:50:31.465Z,10.50
2018-06-17T06:53:00.848Z,12.03
2018-06-17T06:55:30.129Z,8.30
2018-06-17T06:57:59.538Z,8.97
2018-06-17T07:00:29.007Z,9.67
2018-06-17T07:03:09.541Z,8.23
2018-06-17T07:05:50.377Z,6.93
2018-06-17T07:08:24.878Z,6.60
2018-06-17T07:10:54.121Z,9.20
2018-06-17T07:13:23.533Z,8.00
2018-06-17T07:17:04.495Z,7.57
2018-06-17T07:19:34.067Z,9.83
2018-06-17T07:22:03.396Z,8.55
2018-06-17T07:24:32.719Z,9.03
2018-06-17T07:27:13.311Z,10.35
2018-06-17T07:29:43.084Z,8.03
2018-06-17T07:32:12.318Z,10.50
2018-06-17T07:34:41.751Z,9.78
2018-06-17T07:37:11.527Z,10.65
2018-06-17T07:40:19.099Z,9.68
2018-06-17T07:42:49.716Z,11.95
2018-06-17T07:45:19.085Z,9.90
2018-06-17T07:47:48.105Z,7.78
2018-06-17T07:50:28.615Z,10.40
2018-06-17T07:53:09.235Z,7.55
2018-06-17T07:55:38.470Z,10.35
2018-06-17T07:58:07.826Z,11.43
2018-06-17T08:00:37.153Z,10.63
2018-06-17T08:03:06.477Z,11.53
2018-06-17T08:05:35.759Z,10.13
2018-06-17T08:08:05.291Z,10.30
2018-06-17T08:10:34.809Z,12.53
2018-06-17T08:13:04.353Z,15.33
2018-06-17T08:15:33.706Z,13.30
2018-06-17T08:18:03.065Z,14.73
2018-06-17T08:20:32.103Z,12.77
2018-06-17T08:23:01.279Z,12.83
2018-06-17T08:25:30.316Z,10.20
2018-06-17T08:27:59.539Z,10.00
2018-06-17T08:30:28.852Z,9.23
2018-06-17T08:32:58.237Z,9.53
2018-06-17T08:35:27.698Z,9.05
2018-06-17T08:37:57.087Z,8.65
2018-06-17T08:40:26.434Z,9.58
2018-06-17T08:42:55.753Z,5.97
2018-06-17T08:45:25.176Z,6.97
2018-06-17T08:47:54.788Z,6.30
2018-06-17T08:50:24.102Z,9.35
2018-06-17T08:52:53.424Z,5.80
2018-06-17T08:55:22.896Z,5.47
2018-06-17T08:57:52.267Z,5.22
2018-06-17T09:00:21.596Z,5.83
2018-06-17T09:02:51.111Z,3.85
2018-06-17T09:05:20.426Z,4.22
2018-06-17T09:07:49.820Z,6.75
2018-06-17T09:10:19.111Z,3.70
2018-06-17T09:12:48.502Z,4.50
2018-06-17T09:15:17.771Z,4.62
2018-06-17T09:17:47.221Z,4.92
2018-06-17T09:20:16.494Z,6.35
2018-06-17T09:22:45.843Z,4.62
2018-06-17T09:25:15.199Z,3.25
2018-06-17T09:27:44.569Z,3.10
2018-06-17T09:30:13.883Z,5.47
2018-06-17T09:32:43.332Z,6.47
2018-06-17T09:35:12.826Z,3.35
2018-06-17T09:37:42.161Z,8.00
2018-06-17T09:40:11.908Z,3.33
2018-06-17T09:42:41.394Z,2.17
2018-06-17T09:45:11.131Z,2.22
2018-06-17T09:47:40.422Z,5.30
2018-06-17T09:50:09.772Z,2.57
2018-06-17T09:52:39.234Z,2.67
2018-06-17T09:55:09.590Z,2.45
2018-06-17T09:57:38.918Z,5.87
2018-06-17T10:00:08.418Z,2.12
2018-06-17T10:02:37.810Z,1.90
2018-06-17T10:05:07.108Z,2.95
2018-06-17T10:07:36.511Z,3.50
2018-06-17T10:11:11.008Z,2.67
2018-06-17T10:13:44.142Z,2.72
2018-06-17T10:16:14.208Z,2.50
2018-06-17T10:18:43.938Z,1.30
2018-06-17T10:21:13.316Z,1.72
2018-06-17T10:23:42.866Z,2.33
2018-06-17T10:26:12.278Z,4.33
2018-06-17T10:28:41.665Z,3.42
2018-06-17T10:31:11.194Z,3.65
2018-06-17T10:33:40.823Z,4.30
2018-06-17T10:36:10.295Z,2.92
2018-06-17T10:38:39.819Z,1.60
2018-06-17T10:41:09.232Z,2.35
2018-06-17T10:43:38.680Z,1.37
2018-06-17T10:46:08.716Z,0.85
2018-06-17T10:48:38.400Z,2.00
2018-06-17T10:51:07.982Z,2.10
2018-06-17T10:53:37.368Z,1.70
2018-06-17T10:56:07.048Z,0.95
2018-06-17T10:58:36.381Z,2.30
2018-06-17T11:01:06.324Z,2.80
2018-06-17T11:03:35.929Z,1.77
2018-06-17T11:06:05.197Z,1.00
2018-06-17T11:08:34.710Z,1.40
2018-06-17T11:11:04.162Z,1.57
2018-06-17T11:13:33.654Z,1.43
2018-06-17T11:16:03.084Z,1.10
2018-06-17T11:18:33.088Z,1.80
2018-06-17T11:21:02.491Z,1.60
2018-06-17T11:23:31.939Z,5.03
2018-06-17T11:26:01.540Z,3.63
2018-06-17T11:28:31.150Z,1.70
2018-06-17T11:31:00.562Z,1.20
2018-06-17T11:33:30.268Z,1.30
2018-06-17T11:35:59.812Z,2.02
2018-06-17T11:38:29.350Z,1.42
2018-06-17T11:40:59.271Z,2.83
2018-06-17T11:43:29.342Z,1.62
2018-06-17T11:46:05.171Z,0.88
2018-06-17T11:48:34.824Z,1.77
2018-06-17T11:51:04.155Z,1.55
2018-06-17T11:53:33.537Z,1.60
2018-06-17T11:56:02.921Z,1.85
2018-06-17T11:58:32.529Z,1.72
2018-06-17T12:01:02.265Z,6.15
2018-06-17T12:03:42.268Z,4.30
2018-06-17T12:09:14.025Z,3.80
2018-06-17T12:12:01.075Z,2.25
2018-06-17T12:14:34.846Z,2.43
2018-06-17T12:17:06.698Z,2.47
2018-06-17T12:19:36.330Z,2.13
2018-06-17T12:22:06.128Z,1.90
2018-06-17T12:24:35.592Z,1.57
2018-06-17T12:27:05.106Z,2.13
2018-06-17T12:29:34.633Z,2.07
2018-06-17T12:32:04.039Z,3.60
2018-06-17T12:34:33.153Z,4.27
2018-06-17T12:37:02.600Z,4.83
2018-06-17T12:39:32.108Z,3.90
2018-06-17T12:42:01.997Z,3.17
2018-06-17T12:44:31.619Z,3.23
2018-06-17T12:47:01.230Z,2.53
2018-06-17T12:49:30.675Z,3.47
2018-06-17T12:52:00.135Z,2.97
2018-06-17T12:54:29.705Z,2.27
2018-06-17T12:56:59.407Z,5.20
2018-06-17T12:59:28.994Z,7.30
2018-06-17T13:02:05.191Z,3.23
2018-06-17T13:04:34.761Z,1.70
2018-06-17T13:07:04.697Z,1.87
2018-06-17T13:09:34.256Z,6.13
2018-06-17T13:12:03.856Z,4.40
2018-06-17T13:14:33.484Z,2.20
2018-06-17T13:17:03.945Z,3.33
2018-06-17T13:19:33.305Z,4.70
2018-06-17T13:22:02.836Z,5.27
2018-06-17T13:24:32.462Z,3.70
2018-06-17T13:27:01.977Z,4.47
2018-06-17T13:29:31.569Z,1.90
2018-06-17T13:32:02.525Z,2.23
2018-06-17T13:34:32.068Z,2.57
2018-06-17T13:37:01.931Z,6.00
2018-06-17T13:41:57.480Z,1.87
2018-06-17T13:44:26.804Z,1.97
2018-06-17T13:46:56.197Z,1.97
2018-06-17T13:49:25.528Z,3.70
2018-06-17T13:51:54.952Z,3.53
2018-06-17T13:54:24.409Z,2.80
2018-06-17T13:57:09.199Z,5.20
2018-06-17T13:59:42.261Z,2.90
2018-06-17T14:05:35.949Z,4.43
2018-06-17T14:08:30.249Z,3.03
2018-06-17T14:11:01.618Z,1.93
2018-06-17T14:13:31.098Z,3.03
2018-06-17T14:16:09.388Z,3.30
2018-06-17T14:18:53.741Z,4.47
2018-06-17T14:21:36.213Z,4.20
2018-06-17T14:26:56.011Z,3.13
2018-06-17T14:29:26.390Z,3.27
2018-06-17T14:32:19.269Z,4.63
2018-06-17T14:34:49.555Z,3.07
2018-06-17T14:37:24.600Z,2.93
2018-06-17T14:39:54.544Z,2.80
2018-06-17T14:42:29.221Z,3.53
2018-06-17T14:45:04.304Z,2.60
2018-06-17T14:47:39.282Z,2.13
2018-06-17T14:50:14.257Z,4.27
2018-06-17T14:52:49.491Z,4.50
2018-06-17T14:55:19.614Z,2.83
2018-06-17T14:57:56.139Z,3.60
2018-06-17T15:00:27.240Z,3.57
2018-06-17T15:02:56.847Z,3.30
2018-06-17T15:05:40.948Z,5.03
2018-06-17T15:08:10.334Z,2.30
2018-06-17T15:10:40.031Z,2.70
2018-06-17T15:13:11.682Z,3.80
2018-06-17T15:15:41.236Z,4.73
2018-06-17T15:18:10.981Z,3.57
2018-06-17T15:20:40.926Z,5.50
2018-06-17T15:23:10.332Z,6.17
2018-06-17T15:25:39.994Z,4.07
2018-06-17T15:28:09.867Z,5.17
2018-06-17T15:30:39.613Z,2.30
2018-06-17T15:33:14.184Z,2.80
2018-06-17T15:35:48.920Z,6.03
2018-06-17T15:38:23.828Z,5.73
2018-06-17T15:40:58.339Z,2.27
2018-06-17T15:43:27.832Z,3.23
2018-06-17T15:45:57.680Z,5.20
2018-06-17T15:48:32.146Z,2.13
2018-06-17T15:51:02.809Z,2.30
2018-06-17T15:53:32.015Z,3.77
2018-06-17T15:56:01.240Z,3.07
2018-06-17T15:58:30.877Z,4.07
2018-06-17T16:01:00.289Z,6.47
2018-06-17T16:03:29.589Z,5.73
2018-06-17T16:05:59.057Z,3.03
2018-06-17T16:08:28.614Z,2.13
2018-06-17T16:10:57.999Z,4.07
2018-06-17T16:15:40.574Z,1.70
2018-06-17T16:18:16.826Z,5.23
2018-06-17T16:20:51.782Z,3.17
2018-06-17T16:23:21.404Z,5.47
2018-06-17T16:25:50.651Z,1.70
2018-06-17T16:28:19.937Z,2.80
2018-06-17T16:30:49.467Z,2.33
2018-06-17T16:36:00.043Z,4.90
2018-06-17T16:38:29.482Z,2.67
2018-06-17T16:40:59.586Z,4.07
2018-06-17T16:43:29.677Z,3.40
2018-06-17T16:45:59.646Z,5.60
2018-06-17T16:48:29.379Z,2.60
2018-06-17T16:51:04.189Z,6.77
2018-06-17T16:53:38.946Z,5.53
2018-06-17T16:56:13.635Z,6.53
2018-06-17T16:58:48.151Z,4.57
2018-06-17T17:01:17.951Z,5.47
2018-06-17T17:03:47.659Z,2.83
2018-06-17T17:06:17.046Z,5.90
2018-06-17T17:08:46.502Z,3.43
2018-06-17T17:11:16.098Z,4.67
2018-06-17T17:13:45.532Z,3.33
2018-06-17T17:16:14.912Z,3.73
2018-06-17T17:18:44.932Z,2.43
2018-06-17T17:21:16.386Z,2.70
2018-06-17T17:23:49.626Z,6.03
2018-06-17T17:26:22.723Z,4.70
2018-06-17T17:28:54.507Z,3.37
2018-06-17T17:31:33.475Z,5.13
2018-06-17T17:37:01.518Z,5.27
2018-06-17T17:42:40.120Z,2.57
2018-06-17T17:45:26.143Z,4.20
2018-06-17T17:49:00.852Z,4.67
2018-06-17T17:51:51.741Z,4.43
2018-06-17T17:54:50.533Z,4.87
2018-06-17T17:57:42.225Z,3.30
2018-06-17T18:03:25.974Z,4.47
2018-06-17T18:06:10.826Z,4.50
2018-06-17T18:08:56.918Z,6.20
2018-06-17T18:15:03.544Z,3.33
2018-06-17T18:18:16.485Z,4.77
2018-06-17T18:20:56.265Z,6.20
2018-06-17T18:23:25.551Z,3.60
2018-06-17T18:26:00.388Z,3.30
2018-06-17T18:28:35.757Z,4.43
2018-06-17T18:31:05.749Z,3.60
2018-06-17T18:33:40.550Z,3.70
2018-06-17T18:36:13.406Z,4.37
2018-06-17T18:38:46.179Z,5.03
2018-06-17T18:41:16.460Z,2.77
2018-06-17T18:43:46.129Z,4.27
2018-06-17T18:46:16.302Z,4.20
2018-06-17T18:48:46.207Z,4.97
2018-06-17T18:51:16.309Z,6.30
2018-06-17T18:53:45.934Z,6.80
2018-06-17T18:56:15.575Z,5.80
2018-06-17T18:58:46.719Z,4.43
2018-06-17T19:01:20.142Z,3.50
2018-06-17T19:03:51.742Z,5.10
2018-06-17T19:06:24.208Z,5.03
2018-06-17T19:08:59.273Z,4.40
2018-06-17T19:11:34.091Z,4.00
2018-06-17T19:14:08.622Z,7.43
2018-06-17T19:20:14.793Z,7.57
2018-06-17T19:22:44.614Z,4.97
2018-06-17T19:25:14.521Z,7.50
2018-06-17T19:27:47.333Z,6.93
2018-06-17T19:30:17.471Z,7.03
2018-06-17T19:32:47.847Z,4.43
2018-06-17T19:35:17.769Z,6.03
2018-06-17T19:37:47.429Z,5.07
2018-06-17T19:40:16.724Z,6.30
2018-06-17T19:42:46.241Z,5.53
2018-06-17T19:45:15.599Z,7.53
2018-06-17T19:47:45.387Z,5.73
2018-06-17T19:50:20.420Z,5.67
2018-06-17T19:52:55.048Z,2.83
2018-06-17T19:55:29.719Z,7.60
2018-06-17T19:58:04.263Z,5.10
2018-06-17T20:00:35.398Z,8.53
2018-06-17T20:03:05.222Z,5.57
2018-06-17T20:05:34.688Z,7.73
2018-06-17T20:08:04.057Z,7.73
2018-06-17T20:10:33.387Z,8.67
2018-06-17T20:13:02.737Z,5.70
2018-06-17T20:15:32.024Z,3.97
2018-06-17T20:18:01.683Z,6.13
2018-06-17T20:20:30.983Z,4.70
2018-06-17T20:23:00.315Z,5.23
2018-06-17T20:25:29.580Z,8.40
2018-06-17T20:27:58.928Z,8.70
2018-06-17T20:30:28.461Z,6.87
2018-06-17T20:33:03.109Z,4.90
2018-06-17T20:35:37.611Z,4.73
2018-06-17T20:38:12.119Z,5.00
2018-06-17T20:40:46.785Z,9.13
2018-06-17T20:43:21.442Z,9.10
2018-06-17T20:45:50.689Z,5.87
2018-06-17T20:48:20.002Z,9.80
2018-06-17T20:50:49.311Z,6.33
2018-06-17T20:53:18.609Z,4.70
2018-06-17T20:55:47.864Z,7.57
2018-06-17T20:58:17.100Z,8.90
2018-06-17T21:00:46.420Z,6.80
2018-06-17T21:03:15.845Z,6.70
2018-06-17T21:05:45.155Z,7.27
2018-06-17T21:08:14.424Z,7.43
2018-06-17T21:10:43.685Z,8.37
2018-06-17T21:13:12.980Z,8.37
2018-06-17T21:15:42.228Z,8.23
2018-06-17T21:18:11.525Z,7.60
2018-06-17T21:20:46.110Z,7.47
2018-06-17T21:23:20.805Z,5.77
2018-06-17T21:25:55.244Z,5.10
2018-06-17T21:28:24.851Z,5.63
2018-06-17T21:30:54.278Z,6.07
2018-06-17T21:33:23.544Z,4.27
2018-06-17T21:35:52.970Z,10.60
2018-06-17T21:38:22.278Z,5.83
2018-06-17T21:40:51.611Z,5.77
2018-06-17T21:43:20.974Z,7.33
2018-06-17T21:45:50.624Z,9.23
2018-06-17T21:48:20.116Z,7.90
2018-06-17T21:50:50.245Z,7.37
2018-06-17T21:53:19.521Z,6.57
2018-06-17T21:55:48.968Z,9.57
2018-06-17T21:58:52.694Z,7.00
2018-06-17T22:01:22.033Z,5.63
2018-06-17T22:03:51.353Z,11.20
2018-06-17T22:06:20.659Z,6.50
2018-06-17T22:08:55.178Z,6.90
2018-06-17T22:11:29.847Z,6.30
2018-06-17T22:14:04.305Z,6.20
2018-06-17T22:16:38.964Z,5.10
2018-06-17T22:19:08.270Z,7.20
2018-06-17T22:21:37.859Z,5.47
2018-06-17T22:24:07.241Z,8.93
2018-06-17T22:26:36.483Z,5.20
2018-06-17T22:29:05.850Z,7.87
2018-06-17T22:31:35.145Z,6.40
2018-06-17T22:34:04.348Z,5.73
2018-06-17T22:36:33.690Z,5.07
2018-06-17T22:39:02.986Z,5.67
2018-06-17T22:41:32.304Z,3.37
2018-06-17T22:44:01.539Z,7.03
2018-06-17T22:46:31.146Z,6.50
2018-06-17T22:49:00.488Z,5.67
2018-06-17T22:51:29.759Z,7.03
2018-06-17T22:54:10.079Z,6.13
2018-06-17T22:56:44.525Z,9.70
2018-06-17T22:59:19.089Z,7.27
2018-06-17T23:01:53.745Z,6.90
2018-06-17T23:04:28.448Z,6.07
2018-06-17T23:07:02.836Z,8.93
2018-06-17T23:09:35.778Z,9.73
2018-06-17T23:12:05.055Z,12.20
2018-06-17T23:14:34.381Z,6.10
2018-06-17T23:17:03.701Z,7.67
2018-06-17T23:19:32.972Z,9.20
2018-06-17T23:22:02.272Z,9.43
2018-06-17T23:24:31.523Z,7.53
2018-06-17T23:27:00.792Z,5.70
2018-06-17T23:29:30.152Z,8.53
2018-06-17T23:31:59.383Z,6.97
2018-06-17T23:34:28.621Z,6.70
2018-06-17T23:36:57.849Z,8.93
2018-06-17T23:39:27.168Z,7.27
2018-06-17T23:41:56.454Z,5.97
2018-06-17T23:44:25.725Z,5.40
2018-06-17T23:47:00.089Z,8.70
2018-06-17T23:49:34.590Z,5.47
2018-06-17T23:52:09.210Z,6.00
2018-06-17T23:54:43.700Z,5.90
2018-06-17T23:57:13.739Z,10.72
2018-06-17T23:59:43.068Z,11.07
